Time;durP1;ratioP1;P1;durP2;ratioP2;P2;SDS_P1;SDS_P2;PMS_P1;PMS_P2;Temp;Humidity;BMP_temperature;BMP_pressure;BME280_temperature;BME280_humidity;BME280_pressure;Samples;Min_cycle;Max_cycle;Signal;HPM_P1;HPM_P2
2023/12/10 00:00:57;;;;;;;31.23;7.18;;;;;;;7.98;100.00;99720.94;5047143;28;20056;-73
2023/12/10 00:03:23;;;;;;;23.30;5.70;;;;;;;8.00;100.00;99713.63;5047606;28;20093;-72
2023/12/10 00:05:49;;;;;;;27.15;6.32;;;;;;;8.02;100.00;99722.41;5044480;28;20029;-72
2023/12/10 00:08:14;;;;;;;32.45;6.20;;;;;;;8.03;100.00;99720.56;5063706;28;20029;-70
2023/12/10 00:10:39;;;;;;;32.08;6.55;;;;;;;8.05;100.00;99715.91;5069996;28;20028;-71
2023/12/10 00:13:05;;;;;;;28.17;5.53;;;;;;;8.05;100.00;99721.28;5060258;28;20036;-70
2023/12/10 00:15:30;;;;;;;28.98;6.90;;;;;;;8.05;100.00;99716.78;5059855;28;20020;-70
2023/12/10 00:17:56;;;;;;;33.42;7.18;;;;;;;8.09;100.00;99716.53;5062376;28;20090;-70
2023/12/10 00:20:22;;;;;;;30.98;6.18;;;;;;;8.09;100.00;99736.09;5057588;28;20036;-70
2023/12/10 00:22:47;;;;;;;29.63;6.60;;;;;;;8.11;100.00;99726.16;5062825;28;20116;-70
2023/12/10 00:25:13;;;;;;;30.27;6.47;;;;;;;8.14;100.00;99746.44;5066524;28;20053;-71
2023/12/10 00:27:39;;;;;;;24.80;6.07;;;;;;;8.15;100.00;99754.34;5056263;28;20516;-71
2023/12/10 00:30:04;;;;;;;35.20;8.10;;;;;;;8.16;100.00;99749.88;5061696;28;20488;-70
2023/12/10 00:32:30;;;;;;;31.25;7.05;;;;;;;8.18;100.00;99746.06;5061368;28;20728;-72
2023/12/10 00:34:55;;;;;;;31.52;6.30;;;;;;;8.19;100.00;99754.97;5070070;28;20036;-71
2023/12/10 00:37:21;;;;;;;28.05;6.25;;;;;;;8.18;100.00;99748.75;5069462;28;20059;-71
2023/12/10 00:39:46;;;;;;;33.42;7.50;;;;;;;8.18;100.00;99754.09;5057986;28;20025;-71
2023/12/10 00:42:11;;;;;;;27.67;6.35;;;;;;;8.17;100.00;99747.06;5054865;28;20044;-71
2023/12/10 00:44:37;;;;;;;26.60;7.00;;;;;;;8.16;100.00;99750.69;5068016;28;20093;-71
2023/12/10 00:47:02;;;;;;;24.27;5.65;;;;;;;8.14;100.00;99747.31;5061531;28;20025;-71
2023/12/10 00:49:27;;;;;;;28.30;6.30;;;;;;;8.13;100.00;99764.34;5070204;28;20024;-70
2023/12/10 00:51:53;;;;;;;32.90;6.13;;;;;;;8.13;100.00;99774.19;5075437;28;20127;-71
2023/12/10 00:54:18;;;;;;;29.30;5.65;;;;;;;8.13;100.00;99774.19;5070666;28;20024;-70
2023/12/10 00:56:43;;;;;;;30.30;5.53;;;;;;;8.13;100.00;99777.72;5072966;28;20023;-71
2023/12/10 00:59:12;;;;;;;25.08;5.75;;;;;;;8.13;100.00;99782.22;5071657;28;20036;-70
2023/12/10 01:01:37;;;;;;;24.02;5.13;;;;;;;8.12;100.00;99781.34;5063113;28;20076;-70
2023/12/10 01:04:03;;;;;;;21.23;5.07;;;;;;;8.11;100.00;99785.03;5073953;28;20021;-71
2023/12/10 01:06:28;;;;;;;26.10;6.43;;;;;;;8.10;100.00;99783.31;5067085;28;20025;-71
2023/12/10 01:08:53;;;;;;;29.77;5.80;;;;;;;8.10;100.00;99801.22;5066930;28;20032;-71
2023/12/10 01:11:19;;;;;;;26.50;5.53;;;;;;;8.08;100.00;99795.09;5062747;28;20080;-70
2023/12/10 01:13:44;;;;;;;28.70;5.80;;;;;;;8.07;100.00;99793.41;5071733;28;20032;-71
2023/12/10 01:16:16;;;;;;;34.00;6.38;;;;;;;8.05;100.00;99786.38;5064941;28;20033;-72
2023/12/10 01:18:42;;;;;;;30.50;6.68;;;;;;;8.04;100.00;99778.47;5065745;28;20028;-70
2023/12/10 01:21:10;;;;;;;25.80;6.47;;;;;;;8.03;100.00;99803.50;5068430;28;20095;-73
2023/12/10 01:23:37;;;;;;;22.48;5.25;;;;;;;7.99;100.00;99797.53;5063844;28;20029;-71
2023/12/10 01:26:03;;;;;;;21.98;5.28;;;;;;;7.99;100.00;99799.38;5067310;28;20025;-71
2023/12/10 01:28:29;;;;;;;33.67;5.75;;;;;;;7.97;100.00;99799.50;5070653;28;20424;-71
2023/12/10 01:30:54;;;;;;;26.63;6.03;;;;;;;7.98;100.00;99805.69;5072125;28;20025;-71
2023/12/10 01:33:19;;;;;;;24.10;5.95;;;;;;;7.98;100.00;99806.56;5068141;28;20050;-71
2023/12/10 01:35:45;;;;;;;31.80;6.93;;;;;;;7.98;100.00;99811.91;5063512;28;20090;-71
2023/12/10 01:38:10;;;;;;;25.35;5.15;;;;;;;8.00;100.00;99826.00;5067732;28;20031;-73
2023/12/10 01:40:36;;;;;;;28.63;5.97;;;;;;;8.01;100.00;99841.09;5068437;28;20263;-71
2023/12/10 01:43:08;;;;;;;29.42;6.45;;;;;;;8.02;100.00;99839.25;5072318;28;20040;-70
2023/12/10 01:45:33;;;;;;;22.90;5.15;;;;;;;8.01;100.00;99843.78;5069971;28;20032;-70
2023/12/10 01:48:00;;;;;;;23.00;5.45;;;;;;;8.00;100.00;99847.41;5065636;28;20423;-71
2023/12/10 01:50:26;;;;;;;30.48;6.05;;;;;;;7.98;100.00;99853.84;5062298;28;20575;-70
2023/12/10 01:52:52;;;;;;;21.45;4.97;;;;;;;7.95;100.00;99849.59;5070822;28;20055;-71
2023/12/10 01:55:17;;;;;;;26.17;5.78;;;;;;;7.93;100.00;99856.03;5061582;28;20040;-71
2023/12/10 01:57:43;;;;;;;24.67;5.40;;;;;;;7.90;100.00;99851.78;5070850;28;20471;-71
2023/12/10 02:00:09;;;;;;;23.92;5.25;;;;;;;7.87;100.00;99847.50;5063080;28;20055;-71
2023/12/10 02:02:36;;;;;;;22.30;4.90;;;;;;;7.83;100.00;99851.44;5064099;28;20066;-70
2023/12/10 02:05:05;;;;;;;21.88;5.18;;;;;;;7.81;100.00;99848.00;5063689;28;20025;-71
2023/12/10 02:07:30;;;;;;;26.95;5.70;;;;;;;7.79;100.00;99846.41;5066369;28;20185;-71
2023/12/10 02:09:55;;;;;;;25.27;5.53;;;;;;;7.76;100.00;99855.53;5066114;28;20029;-71
2023/12/10 02:12:21;;;;;;;30.10;6.55;;;;;;;7.74;100.00;99857.47;5065364;28;20055;-70
2023/12/10 02:14:47;;;;;;;23.10;5.10;;;;;;;7.69;100.00;99849.81;5064174;28;20048;-72
2023/12/10 02:17:12;;;;;;;23.30;4.78;;;;;;;7.64;100.00;99843.97;5062532;28;20053;-72
2023/12/10 02:19:37;;;;;;;28.02;5.80;;;;;;;7.62;100.00;99856.59;5061128;28;20068;-71
2023/12/10 02:22:04;;;;;;;24.90;4.93;;;;;;;7.60;100.00;99855.88;5069312;28;20036;-73
2023/12/10 02:24:48;;;;;;;24.30;5.28;;;;;;;7.59;100.00;99859.50;5074078;28;20028;-71
2023/12/10 02:27:13;;;;;;;22.98;4.30;;;;;;;7.55;100.00;99855.34;5058381;28;20113;-73
2023/12/10 02:29:39;;;;;;;23.77;4.57;;;;;;;7.53;100.00;99863.50;5043610;28;20438;-73
2023/12/10 02:32:05;;;;;;;21.20;5.05;;;;;;;7.52;100.00;99856.44;5053170;28;20020;-73
2023/12/10 02:34:31;;;;;;;25.33;5.20;;;;;;;7.53;100.00;99863.50;5057917;28;20244;-73
2023/12/10 02:36:56;;;;;;;22.13;5.07;;;;;;;7.55;100.00;99882.09;5057651;28;20024;-73
2023/12/10 02:39:21;;;;;;;21.77;4.97;;;;;;;7.55;100.00;99868.72;5054610;28;20058;-73
2023/12/10 02:41:47;;;;;;;24.15;5.32;;;;;;;7.55;100.00;99867.88;5048396;28;20491;-73
2023/12/10 02:44:12;;;;;;;23.00;4.63;;;;;;;7.54;100.00;99861.69;5045285;28;20037;-73
2023/12/10 02:46:43;;;;;;;21.00;4.65;;;;;;;7.53;100.00;99871.53;5053760;28;20047;-73
2023/12/10 02:49:08;;;;;;;23.50;5.15;;;;;;;7.53;100.00;99873.34;5057494;28;20024;-72
2023/12/10 02:51:34;;;;;;;25.35;5.07;;;;;;;7.52;100.00;99874.31;5054297;28;20048;-73
2023/12/10 02:53:59;;;;;;;23.02;5.28;;;;;;;7.52;100.00;99879.66;5062036;28;20116;-73
2023/12/10 02:56:24;;;;;;;23.52;4.65;;;;;;;7.52;100.00;99882.34;5056221;28;20083;-72
2023/12/10 02:58:50;;;;;;;22.83;4.70;;;;;;;7.52;100.00;99895.69;5055576;28;20029;-73
2023/12/10 03:01:15;;;;;;;22.92;5.32;;;;;;;7.51;100.00;99891.31;5052717;28;20027;-73
2023/12/10 03:03:40;;;;;;;25.75;5.40;;;;;;;7.54;100.00;99896.47;5048693;28;20786;-72
2023/12/10 03:06:07;;;;;;;22.92;4.80;;;;;;;7.53;100.00;99894.75;5060531;28;20480;-72
2023/12/10 03:08:32;;;;;;;23.08;4.88;;;;;;;7.55;100.00;99879.41;5062250;28;20062;-73
2023/12/10 03:10:58;;;;;;;26.55;5.03;;;;;;;7.56;100.00;99896.34;5061894;28;20104;-72
2023/12/10 03:13:23;;;;;;;27.30;5.43;;;;;;;7.55;100.00;99899.97;5062185;28;20020;-72
2023/12/10 03:15:48;;;;;;;20.58;4.78;;;;;;;7.56;100.00;99899.84;5060458;28;20201;-72
2023/12/10 03:18:14;;;;;;;30.83;5.38;;;;;;;7.59;100.00;99912.16;5061274;28;20116;-73
2023/12/10 03:20:39;;;;;;;23.27;5.05;;;;;;;7.60;100.00;99913.81;5059236;28;20082;-72
2023/12/10 03:23:04;;;;;;;24.17;5.30;;;;;;;7.61;100.00;99920.88;5054410;28;20115;-72
2023/12/10 03:25:29;;;;;;;23.52;5.22;;;;;;;7.60;100.00;99917.38;5056967;28;20031;-72
2023/12/10 03:27:55;;;;;;;17.33;3.35;;;;;;;7.60;100.00;99912.03;5055508;28;20029;-72
2023/12/10 03:30:20;;;;;;;25.90;4.82;;;;;;;7.62;100.00;99934.16;5059985;28;20064;-72
2023/12/10 03:32:45;;;;;;;22.92;5.47;;;;;;;7.64;100.00;99932.22;5052301;28;20032;-72
2023/12/10 03:35:11;;;;;;;25.38;5.18;;;;;;;7.65;100.00;99938.41;5055316;28;20496;-72
2023/12/10 03:37:36;;;;;;;21.65;5.63;;;;;;;7.68;100.00;99939.03;5058846;28;20043;-72
2023/12/10 03:40:02;;;;;;;19.25;4.30;;;;;;;7.68;100.00;99952.41;5053308;28;20064;-72
2023/12/10 03:42:28;;;;;;;25.52;5.18;;;;;;;7.70;100.00;99939.78;5051077;28;20033;-72
2023/12/10 03:44:55;;;;;;;23.48;5.53;;;;;;;7.74;100.00;99943.06;5053977;28;20569;-72
2023/12/10 03:47:24;;;;;;;21.60;3.78;;;;;;;7.77;100.00;99948.16;5052703;28;20051;-72
2023/12/10 03:49:49;;;;;;;25.70;5.10;;;;;;;7.79;100.00;99940.03;5053765;28;20088;-73
2023/12/10 03:52:14;;;;;;;22.42;5.35;;;;;;;7.80;100.00;99950.59;5068183;28;20814;-73
2023/12/10 03:54:40;;;;;;;26.17;5.22;;;;;;;7.81;100.00;99951.47;5070959;28;20012;-73
2023/12/10 03:57:05;;;;;;;17.95;4.22;;;;;;;7.85;100.00;99944.94;5060279;28;20040;-74
2023/12/10 03:59:31;;;;;;;21.38;5.18;;;;;;;7.87;100.00;99969.72;5048575;28;20048;-73
2023/12/10 04:01:56;;;;;;;21.73;5.53;;;;;;;7.88;100.00;99955.41;5051720;28;20024;-73
2023/12/10 04:04:21;;;;;;;22.20;4.10;;;;;;;7.90;100.00;99953.44;5050010;28;20056;-73
2023/12/10 04:06:47;;;;;;;26.90;4.97;;;;;;;7.93;100.00;99953.19;5049264;28;20074;-73
2023/12/10 04:09:13;;;;;;;23.20;5.38;;;;;;;7.94;100.00;99976.31;5048969;28;20492;-73
2023/12/10 04:11:38;;;;;;;22.42;4.28;;;;;;;7.95;100.00;99978.03;5038627;28;20117;-73
2023/12/10 04:14:09;;;;;;;24.45;5.20;;;;;;;7.96;100.00;99966.34;5044697;28;20547;-73
2023/12/10 04:16:34;;;;;;;21.63;5.32;;;;;;;7.96;100.00;99973.53;5041593;28;20159;-73
2023/12/10 04:19:00;;;;;;;24.70;4.80;;;;;;;7.97;99.77;99980.59;5045425;28;20458;-73
2023/12/10 04:21:25;;;;;;;34.28;5.38;;;;;;;7.97;100.00;99985.94;5051250;28;20032;-73
2023/12/10 04:23:51;;;;;;;25.42;4.90;;;;;;;7.96;100.00;99979.72;5045075;28;20032;-72
2023/12/10 04:26:16;;;;;;;22.08;4.40;;;;;;;7.97;98.57;99981.44;5042847;28;20033;-73
2023/12/10 04:28:45;;;;;;;19.67;5.03;;;;;;;7.99;99.49;99995.53;5041749;28;20017;-73
2023/12/10 04:31:10;;;;;;;22.33;5.27;;;;;;;8.01;99.74;99992.78;5043718;28;20052;-73
2023/12/10 04:33:36;;;;;;;25.73;4.38;;;;;;;8.01;98.27;100001.66;5054694;28;20294;-73
2023/12/10 04:36:01;;;;;;;20.35;4.05;;;;;;;8.03;100.00;100015.75;5045058;28;20600;-73
2023/12/10 04:38:28;;;;;;;23.98;4.75;;;;;;;8.03;97.50;100013.06;5049677;28;20396;-73
2023/12/10 04:40:54;;;;;;;23.80;4.93;;;;;;;8.05;98.50;100016.50;5044068;28;20044;-72
2023/12/10 04:43:19;;;;;;;22.38;4.75;;;;;;;8.05;97.29;100027.22;5048062;28;20029;-72
2023/12/10 04:45:45;;;;;;;21.10;4.47;;;;;;;8.08;96.83;100019.91;5056888;28;20432;-72
2023/12/10 04:48:11;;;;;;;24.92;4.90;;;;;;;8.09;96.87;100033.16;5055199;28;20036;-72
2023/12/10 04:50:36;;;;;;;20.73;3.67;;;;;;;8.09;97.33;100026.97;5053020;28;20099;-73
2023/12/10 04:53:01;;;;;;;20.08;4.53;;;;;;;8.10;97.03;100034.03;5044848;28;20086;-73
2023/12/10 04:55:27;;;;;;;24.42;4.63;;;;;;;8.12;96.35;100046.31;5049153;28;20025;-73
2023/12/10 04:57:52;;;;;;;24.75;4.85;;;;;;;8.14;95.62;100054.22;5053055;28;20112;-72
2023/12/10 05:00:18;;;;;;;31.77;5.35;;;;;;;8.15;96.17;100058.63;5043890;28;20485;-73
2023/12/10 05:02:43;;;;;;;24.77;5.00;;;;;;;8.16;96.06;100054.97;5046618;28;20025;-73
2023/12/10 05:05:08;;;;;;;23.98;4.22;;;;;;;8.15;95.80;100048.75;5043462;28;20503;-73
2023/12/10 05:07:36;;;;;;;24.42;4.65;;;;;;;8.17;95.18;100075.41;5053114;28;20383;-73
2023/12/10 05:10:03;;;;;;;23.45;5.18;;;;;;;8.18;94.17;100085.16;5075710;28;20038;-72
2023/12/10 05:12:28;;;;;;;24.98;4.28;;;;;;;8.19;94.76;100085.03;5071914;28;20077;-72
2023/12/10 05:14:53;;;;;;;23.88;4.68;;;;;;;8.19;95.20;100093.06;5076774;28;20099;-72
2023/12/10 05:17:19;;;;;;;24.42;4.93;;;;;;;8.19;96.69;100087.69;5070904;28;20165;-72
2023/12/10 05:19:44;;;;;;;24.17;4.88;;;;;;;8.19;95.39;100097.56;5067153;28;20625;-72
2023/12/10 05:22:09;;;;;;;29.88;5.25;;;;;;;8.20;95.36;100083.22;5063589;28;20040;-72
2023/12/10 05:24:35;;;;;;;18.25;5.68;;;;;;;8.20;96.97;100091.25;5073676;28;20024;-73
2023/12/10 05:27:00;;;;;;;20.05;4.78;;;;;;;8.20;96.21;100088.56;5071376;28;20024;-72
2023/12/10 05:29:26;;;;;;;25.90;5.47;;;;;;;8.20;95.06;100102.81;5078976;28;20024;-72
2023/12/10 05:31:51;;;;;;;19.48;4.35;;;;;;;8.22;95.26;100118.75;5075993;28;20060;-72
2023/12/10 05:34:16;;;;;;;24.77;5.22;;;;;;;8.22;94.61;100118.75;5079857;28;20082;-73
2023/12/10 05:36:42;;;;;;;27.02;4.75;;;;;;;8.23;95.02;100121.31;5074310;28;20092;-72
2023/12/10 05:39:07;;;;;;;22.33;4.40;;;;;;;8.25;94.27;100142.59;5070061;28;20029;-73
2023/12/10 05:41:33;;;;;;;27.55;4.68;;;;;;;8.25;94.57;100142.59;5074859;28;20034;-72
2023/12/10 05:43:58;;;;;;;20.35;4.93;;;;;;;8.26;94.71;100133.63;5070720;28;20048;-73
2023/12/10 05:46:24;;;;;;;21.33;4.43;;;;;;;8.28;95.57;100141.53;5066214;28;20009;-73
2023/12/10 05:48:49;;;;;;;21.85;4.90;;;;;;;8.28;94.93;100153.09;5070861;28;20064;-73
2023/12/10 05:51:15;;;;;;;19.77;4.47;;;;;;;8.29;94.51;100151.28;5071169;28;20029;-73
2023/12/10 05:53:41;;;;;;;27.33;5.40;;;;;;;8.28;94.56;100155.75;5078659;28;20048;-73
2023/12/10 05:56:07;;;;;;;23.50;4.80;;;;;;;8.28;93.09;100153.09;5071889;28;20024;-72
2023/12/10 05:58:32;;;;;;;22.67;5.20;;;;;;;8.28;93.06;100162.94;5068637;28;20040;-72
2023/12/10 06:00:58;;;;;;;24.67;4.55;;;;;;;8.28;94.10;100163.78;5077588;28;20032;-72
2023/12/10 06:03:24;;;;;;;25.00;4.85;;;;;;;8.28;93.59;100179.84;5071084;28;20021;-73
2023/12/10 06:05:50;;;;;;;24.85;4.93;;;;;;;8.28;94.27;100193.25;5072069;28;20477;-73
2023/12/10 06:08:15;;;;;;;21.45;4.47;;;;;;;8.29;94.34;100181.56;5072275;28;20033;-73
2023/12/10 06:10:41;;;;;;;25.13;5.07;;;;;;;8.29;94.29;100189.59;5071176;28;20084;-73
2023/12/10 06:13:06;;;;;;;24.70;4.68;;;;;;;8.28;94.12;100171.81;5075083;28;20024;-73
2023/12/10 06:15:31;;;;;;;21.92;4.55;;;;;;;8.27;94.97;100191.53;5067986;28;20044;-73
2023/12/10 06:17:57;;;;;;;21.27;4.63;;;;;;;8.28;94.38;100200.44;5077922;28;20036;-74
2023/12/10 06:20:22;;;;;;;23.25;5.13;;;;;;;8.28;93.97;100197.75;5048399;28;20024;-73
2023/12/10 06:22:48;;;;;;;22.10;4.35;;;;;;;8.28;94.20;100203.94;5046105;28;20488;-74
2023/12/10 06:25:13;;;;;;;26.00;4.72;;;;;;;8.29;94.97;100210.19;5053221;28;20398;-74
2023/12/10 06:27:39;;;;;;;22.73;3.83;;;;;;;8.28;93.65;100217.34;5049789;28;20028;-74
2023/12/10 06:30:04;;;;;;;28.25;4.93;;;;;;;8.28;94.59;100246.78;5053769;28;20120;-74
2023/12/10 06:32:30;;;;;;;22.75;5.05;;;;;;;8.29;95.41;100244.97;5056254;28;20415;-74
2023/12/10 06:34:55;;;;;;;25.33;5.18;;;;;;;8.28;94.48;100246.78;5051543;28;20032;-75
2023/12/10 06:37:20;;;;;;;24.88;4.95;;;;;;;8.28;94.88;100252.13;5058451;28;20021;-75
2023/12/10 06:39:46;;;;;;;22.65;4.60;;;;;;;8.28;95.24;100262.84;5059114;28;20031;-74
2023/12/10 06:42:11;;;;;;;27.63;5.57;;;;;;;8.27;95.13;100247.75;5043291;28;20044;-75
2023/12/10 06:44:36;;;;;;;24.48;4.90;;;;;;;8.26;94.97;100248.72;5043938;28;20245;-75
2023/12/10 06:47:02;;;;;;;25.52;5.30;;;;;;;8.25;94.60;100262.22;5040395;28;20152;-75
2023/12/10 06:49:28;;;;;;;22.35;5.55;;;;;;;8.23;95.87;100263.19;5051962;28;20029;-75
2023/12/10 06:51:53;;;;;;;25.23;5.03;;;;;;;8.26;93.45;100277.31;5054085;28;20068;-73
2023/12/10 06:54:18;;;;;;;25.60;5.63;;;;;;;8.27;93.24;100284.38;5053987;28;20082;-72
2023/12/10 06:56:44;;;;;;;23.13;5.35;;;;;;;8.27;94.14;100293.25;5054046;28;20449;-73
2023/12/10 06:59:09;;;;;;;20.00;4.82;;;;;;;8.26;94.52;100302.28;5050773;28;20036;-73
2023/12/10 07:01:37;;;;;;;27.55;5.88;;;;;;;8.25;93.97;100305.91;5043114;28;20442;-73
2023/12/10 07:04:06;;;;;;;26.50;5.25;;;;;;;8.25;92.83;100303.22;5049745;28;20040;-73
2023/12/10 07:06:32;;;;;;;26.42;5.28;;;;;;;8.26;93.90;100302.28;5045313;28;20036;-73
2023/12/10 07:08:57;;;;;;;23.90;5.47;;;;;;;8.27;94.35;100309.31;5048086;28;20054;-73
2023/12/10 07:11:23;;;;;;;24.15;5.03;;;;;;;8.27;95.11;100317.34;5048818;28;20055;-73
2023/12/10 07:13:49;;;;;;;24.02;5.30;;;;;;;8.26;94.34;100318.34;5052879;28;20029;-73
2023/12/10 07:16:15;;;;;;;24.30;5.32;;;;;;;8.26;93.40;100318.34;5044027;28;20401;-73
2023/12/10 07:18:40;;;;;;;23.13;4.97;;;;;;;8.27;91.53;100319.19;5046075;28;20029;-73
2023/12/10 07:21:06;;;;;;;22.88;4.97;;;;;;;8.26;93.07;100318.34;5046264;28;20036;-73
2023/12/10 07:23:33;;;;;;;26.70;5.10;;;;;;;8.27;93.25;100335.25;5045959;28;20037;-73
2023/12/10 07:25:58;;;;;;;22.65;4.95;;;;;;;8.27;93.31;100329.88;5053907;28;20103;-73
2023/12/10 07:28:24;;;;;;;29.48;5.78;;;;;;;8.26;91.93;100350.47;5061595;28;20092;-72
2023/12/10 07:30:49;;;;;;;26.85;5.30;;;;;;;8.27;91.94;100341.44;5071775;28;20050;-73
2023/12/10 07:33:14;;;;;;;20.27;4.43;;;;;;;8.27;92.94;100360.19;5075375;28;20019;-73
2023/12/10 07:35:40;;;;;;;21.80;4.25;;;;;;;8.27;92.45;100354.81;5080614;28;20040;-73
2023/12/10 07:38:05;;;;;;;20.60;4.97;;;;;;;8.26;93.09;100371.88;5074494;28;20070;-73
2023/12/10 07:40:30;;;;;;;22.02;5.20;;;;;;;8.24;93.51;100368.44;5068704;28;20038;-72
2023/12/10 07:42:56;;;;;;;22.13;4.25;;;;;;;8.25;93.98;100366.63;5072517;28;20042;-73
2023/12/10 07:45:24;;;;;;;24.38;5.00;;;;;;;8.25;94.66;100382.69;5078783;28;20016;-73
2023/12/10 07:47:49;;;;;;;24.30;5.70;;;;;;;8.22;94.01;100386.44;5073365;28;20280;-72
2023/12/10 07:50:15;;;;;;;27.23;5.78;;;;;;;8.22;94.77;100400.69;5068492;28;20048;-72
2023/12/10 07:52:40;;;;;;;25.35;5.03;;;;;;;8.20;94.66;100383.88;5075233;28;20036;-73
2023/12/10 07:55:06;;;;;;;23.67;5.10;;;;;;;8.21;95.12;100398.09;5078575;28;20018;-73
2023/12/10 07:57:32;;;;;;;26.02;4.70;;;;;;;8.21;96.30;100400.78;5073720;28;20013;-73
2023/12/10 07:59:57;;;;;;;23.10;4.90;;;;;;;8.20;96.77;100402.63;5076021;28;20024;-73
2023/12/10 08:02:23;;;;;;;23.25;5.43;;;;;;;8.20;97.23;100409.81;5077693;28;20048;-73
2023/12/10 08:04:48;;;;;;;21.38;5.20;;;;;;;8.19;96.69;100402.72;5078428;28;20047;-73
2023/12/10 08:07:14;;;;;;;29.23;5.75;;;;;;;8.18;98.07;100412.56;5077833;28;20107;-72
2023/12/10 08:09:40;;;;;;;29.55;5.00;;;;;;;8.19;98.13;100408.09;5073607;28;20078;-72
2023/12/10 08:12:05;;;;;;;25.77;5.10;;;;;;;8.18;98.28;100409.88;5070602;28;21034;-72
2023/12/10 08:14:31;;;;;;;27.98;5.88;;;;;;;8.19;99.79;100416.13;5067366;28;20040;-73
2023/12/10 08:16:56;;;;;;;24.45;4.80;;;;;;;8.20;99.44;100420.50;5070117;28;20072;-73
2023/12/10 08:19:22;;;;;;;30.83;5.25;;;;;;;8.18;98.91;100423.25;5068926;28;20102;-73
2023/12/10 08:21:47;;;;;;;30.60;6.05;;;;;;;8.19;100.00;100430.34;5072477;28;20082;-72
2023/12/10 08:24:12;;;;;;;21.92;5.18;;;;;;;8.19;100.00;100429.50;5070892;28;20029;-73
2023/12/10 08:26:37;;;;;;;24.92;5.65;;;;;;;8.19;100.00;100443.72;5068758;28;20479;-72
2023/12/10 08:29:03;;;;;;;32.40;5.63;;;;;;;8.20;100.00;100444.59;5068027;28;20128;-72
2023/12/10 08:31:28;;;;;;;23.17;4.85;;;;;;;8.20;99.77;100447.28;5076102;28;20063;-72
2023/12/10 08:33:54;;;;;;;29.25;5.13;;;;;;;8.20;100.00;100453.47;5071123;28;20032;-72
2023/12/10 08:36:19;;;;;;;24.17;5.53;;;;;;;8.21;99.98;100462.34;5070057;28;20056;-72
2023/12/10 08:38:44;;;;;;;30.83;5.03;;;;;;;8.20;100.00;100480.25;5064714;28;20389;-74
2023/12/10 08:41:10;;;;;;;22.52;5.30;;;;;;;8.21;100.00;100467.72;5045146;28;20128;-74
2023/12/10 08:43:37;;;;;;;27.13;5.15;;;;;;;8.19;100.00;100472.31;5048941;28;20449;-73
2023/12/10 08:46:02;;;;;;;24.23;5.18;;;;;;;8.19;100.00;100470.50;5045550;28;20037;-73
2023/12/10 08:48:28;;;;;;;23.63;5.30;;;;;;;8.20;100.00;100476.72;5053624;28;20028;-74
2023/12/10 08:50:54;;;;;;;25.00;6.15;;;;;;;8.17;100.00;100475.13;5046170;28;20423;-73
2023/12/10 08:53:19;;;;;;;27.45;5.40;;;;;;;8.17;100.00;100477.78;5039171;28;21227;-74
2023/12/10 08:55:45;;;;;;;24.58;5.13;;;;;;;8.16;100.00;100483.25;5040836;28;20044;-74
2023/12/10 08:58:10;;;;;;;23.63;4.63;;;;;;;8.15;100.00;100479.69;5039057;28;20444;-74
2023/12/10 09:00:35;;;;;;;22.98;5.22;;;;;;;8.17;100.00;100484.94;5037979;28;20021;-74
2023/12/10 09:03:01;;;;;;;23.70;4.85;;;;;;;8.14;100.00;100482.47;5034256;28;20111;-74
2023/12/10 09:05:26;;;;;;;21.15;5.47;;;;;;;8.13;100.00;100478.13;5048812;28;20113;-73
2023/12/10 09:07:51;;;;;;;30.15;6.03;;;;;;;8.11;100.00;100491.59;5043984;28;20039;-74
2023/12/10 09:10:17;;;;;;;23.05;5.05;;;;;;;8.12;100.00;100489.78;5055909;28;20095;-74
2023/12/10 09:12:42;;;;;;;23.92;4.80;;;;;;;8.12;100.00;100487.94;5054804;28;20502;-74
2023/12/10 09:15:08;;;;;;;33.00;5.45;;;;;;;8.12;100.00;100487.94;5054143;28;20047;-74
2023/12/10 09:17:34;;;;;;;26.70;5.53;;;;;;;8.12;100.00;100497.81;5052651;28;20040;-74
2023/12/10 09:19:59;;;;;;;20.52;4.70;;;;;;;8.11;100.00;100501.44;5053679;28;20036;-74
2023/12/10 09:22:24;;;;;;;20.80;4.63;;;;;;;8.12;100.00;100508.50;5050766;28;20024;-74
2023/12/10 09:24:50;;;;;;;22.00;5.15;;;;;;;8.13;100.00;100510.22;5046511;28;20021;-73
2023/12/10 09:27:15;;;;;;;18.33;3.90;;;;;;;8.14;100.00;100511.94;5054603;28;20059;-73
2023/12/10 09:29:42;;;;;;;26.90;6.07;;;;;;;8.16;100.00;100504.66;5048788;28;20108;-73
2023/12/10 09:32:08;;;;;;;26.95;4.95;;;;;;;8.19;100.00;100515.16;5049772;28;20092;-74
2023/12/10 09:34:33;;;;;;;24.92;4.53;;;;;;;8.22;100.00;100501.56;5044144;28;20469;-74
2023/12/10 09:37:00;;;;;;;26.95;5.57;;;;;;;8.24;100.00;100510.31;5042842;28;20077;-74
2023/12/10 09:39:26;;;;;;;22.23;5.15;;;;;;;8.25;100.00;100512.06;5058511;28;20048;-74
2023/12/10 09:41:52;;;;;;;30.63;6.68;;;;;;;8.25;100.00;100505.84;5060388;28;20554;-74
2023/12/10 09:44:17;;;;;;;24.75;5.20;;;;;;;8.25;100.00;100509.38;5057525;28;20024;-74
2023/12/10 09:46:43;;;;;;;23.20;5.22;;;;;;;8.25;100.00;100509.38;5049759;28;20083;-74
2023/12/10 09:49:08;;;;;;;26.60;5.38;;;;;;;8.26;100.00;100499.50;5053222;28;20021;-73
2023/12/10 09:51:33;;;;;;;20.75;4.53;;;;;;;8.25;100.00;100512.06;5054214;28;20064;-73
2023/12/10 09:53:59;;;;;;;22.05;5.00;;;;;;;8.26;100.00;100500.38;5047971;28;20047;-73
2023/12/10 09:56:24;;;;;;;26.25;5.75;;;;;;;8.26;100.00;100519.13;5047188;28;20025;-73
2023/12/10 09:58:50;;;;;;;22.92;5.35;;;;;;;8.28;100.00;100519.88;5045509;28;20120;-73
2023/12/10 10:01:15;;;;;;;24.92;5.47;;;;;;;8.30;100.00;100515.28;5048961;28;20148;-73
2023/12/10 10:03:41;;;;;;;22.50;4.95;;;;;;;8.35;100.00;100509.59;5042431;28;20115;-73
2023/12/10 10:06:07;;;;;;;17.38;4.30;;;;;;;8.39;100.00;100503.06;5054864;28;20021;-73
2023/12/10 10:08:32;;;;;;;26.35;5.72;;;;;;;8.43;100.00;100507.22;5053903;28;20082;-73
2023/12/10 10:10:58;;;;;;;25.17;5.15;;;;;;;8.46;100.00;100514.22;5043037;28;20032;-73
2023/12/10 10:13:23;;;;;;;29.27;5.45;;;;;;;8.49;100.00;100503.31;5058560;28;20051;-73
2023/12/10 10:15:49;;;;;;;24.02;4.60;;;;;;;8.51;100.00;100509.44;5043625;28;20485;-73
2023/12/10 10:18:14;;;;;;;25.48;5.28;;;;;;;8.53;100.00;100500.28;5049758;28;20024;-73
2023/12/10 10:20:41;;;;;;;24.42;5.15;;;;;;;8.55;100.00;100486.78;5049152;28;20388;-73
2023/12/10 10:23:08;;;;;;;23.40;4.63;;;;;;;8.57;100.00;100477.69;5049692;28;20060;-73
2023/12/10 10:25:33;;;;;;;18.50;3.70;;;;;;;8.61;100.00;100483.69;5056357;28;20032;-73
2023/12/10 10:27:59;;;;;;;22.63;6.20;;;;;;;8.63;100.00;100480.91;5054490;28;20397;-73
2023/12/10 10:30:24;;;;;;;27.40;5.45;;;;;;;8.66;100.00;100483.38;5050136;28;20534;-73
2023/12/10 10:32:51;;;;;;;25.65;6.40;;;;;;;8.68;100.00;100494.81;5049901;28;20124;-73
2023/12/10 10:35:16;;;;;;;22.38;4.63;;;;;;;8.70;100.00;100493.75;5052993;28;20118;-73
2023/12/10 10:37:42;;;;;;;33.05;6.20;;;;;;;8.74;100.00;100495.25;5048342;28;20058;-73
2023/12/10 10:40:08;;;;;;;22.52;4.30;;;;;;;8.78;100.00;100492.34;5049476;28;20021;-72
2023/12/10 10:42:34;;;;;;;24.95;5.60;;;;;;;8.83;100.00;100508.94;5055360;28;20029;-72
2023/12/10 10:44:59;;;;;;;28.58;6.05;;;;;;;8.84;100.00;100508.81;5042530;28;20093;-73
2023/12/10 10:47:27;;;;;;;27.60;5.15;;;;;;;8.89;100.00;100506.69;5049727;28;20396;-73
2023/12/10 10:49:56;;;;;;;27.02;5.03;;;;;;;8.94;100.00;100502.81;5042293;28;20048;-72
2023/12/10 10:52:25;;;;;;;25.15;4.53;;;;;;;8.97;100.00;100502.59;5057516;28;20028;-73
2023/12/10 10:54:54;;;;;;;23.80;4.20;;;;;;;8.98;100.00;100507.84;5040764;28;20033;-73
2023/12/10 10:57:29;;;;;;;24.15;5.93;;;;;;;9.03;100.00;100510.19;5041224;28;20167;-72
2023/12/10 10:59:55;;;;;;;24.88;5.10;;;;;;;9.05;100.00;100498.41;5053194;28;20036;-73
2023/12/10 11:02:52;;;;;;;30.13;5.82;;;;;;;9.09;100.00;100499.91;5056739;28;20038;-73
2023/12/10 11:05:32;;;;;;;22.25;5.82;;;;;;;9.13;100.00;100494.31;5050698;28;20719;-72
2023/12/10 11:07:57;;;;;;;23.67;5.18;;;;;;;9.15;100.00;100492.34;5051510;28;20031;-72
2023/12/10 11:10:22;;;;;;;26.77;6.65;;;;;;;9.14;100.00;100496.88;5037421;28;20028;-73
2023/12/10 11:12:51;;;;;;;22.42;5.68;;;;;;;9.13;100.00;100499.66;5038602;28;20508;-73
2023/12/10 11:15:16;;;;;;;15.65;3.58;;;;;;;9.12;100.00;100492.59;5040976;28;20021;-73
2023/12/10 11:18:08;;;;;;;25.60;5.07;;;;;;;9.12;100.00;100477.34;5042054;28;20515;-72